Time;durP1;ratioP1;P1;durP2;ratioP2;P2;SDS_P1;SDS_P2;PMS_P1;PMS_P2;Temp;Humidity;BMP_temperature;BMP_pressure;BME280_temperature;BME280_humidity;BME280_pressure;Samples;Min_cycle;Max_cycle;Signal;HPM_P1;HPM_P2
2020/12/18 00:01:29;;;;;;;12.00;3.05;;;7.00;99.90;;;7.65;85.53;101335.28;4958671;29;20036;-78
2020/12/18 00:03:57;;;;;;;7.50;2.63;;;6.90;99.90;;;7.61;85.91;101328.72;4958763;29;20027;-80
2020/12/18 00:06:35;;;;;;;6.25;2.45;;;7.00;99.90;;;7.71;85.36;101327.63;4958898;29;20054;-79
2020/12/18 00:09:07;;;;;;;7.45;2.67;;;7.00;99.90;;;7.74;85.39;101325.00;4961408;29;20476;-79
2020/12/18 00:11:33;;;;;;;10.10;2.97;;;7.10;99.90;;;7.83;84.88;101325.06;4959653;28;20033;-79
2020/12/18 00:13:59;;;;;;;5.75;3.47;;;7.10;99.90;;;7.82;84.91;101323.41;4959866;29;20459;-80
2020/12/18 00:16:26;;;;;;;7.57;3.05;;;7.10;99.90;;;7.80;85.25;101320.94;4959854;29;20042;-80
2020/12/18 00:18:53;;;;;;;5.13;2.78;;;7.20;99.90;;;7.84;85.48;101332.22;4962559;29;20113;-78
2020/12/18 00:21:22;;;;;;;9.60;3.53;;;7.10;99.90;;;7.91;84.87;101329.81;4970142;29;20122;-80
2020/12/18 00:23:49;;;;;;;9.73;3.08;;;7.20;99.90;;;7.99;84.71;101325.41;4972192;29;20027;-79
2020/12/18 00:26:17;;;;;;;7.93;3.17;;;7.20;99.90;;;7.96;84.76;101319.34;4972533;29;20051;-79
2020/12/18 00:28:43;;;;;;;7.43;2.80;;;7.20;99.90;;;8.02;84.47;101336.72;4956176;29;20567;-78
2020/12/18 00:31:09;;;;;;;10.65;3.15;;;7.30;99.90;;;8.07;84.62;101335.72;4973472;29;20042;-82
2020/12/18 00:33:35;;;;;;;7.85;3.22;;;7.30;99.90;;;8.05;84.55;101333.28;4972689;29;20050;-79
2020/12/18 00:36:04;;;;;;;6.80;3.10;;;7.30;99.90;;;8.13;84.32;101331.63;4965403;29;20027;-82
2020/12/18 00:38:31;;;;;;;6.30;2.30;;;7.40;99.90;;;8.15;84.02;101337.72;4963892;29;20137;-80
2020/12/18 00:40:57;;;;;;;10.07;2.72;;;7.40;99.90;;;8.15;84.23;101334.94;4965968;29;20027;-82
2020/12/18 00:43:23;;;;;;;8.05;2.72;;;7.40;99.90;;;8.22;83.65;101332.50;4966541;29;20078;-80
2020/12/18 00:45:50;;;;;;;4.32;2.30;;;7.50;99.90;;;8.29;83.66;101328.09;4964867;29;20031;-79
2020/12/18 00:48:15;;;;;;;7.30;3.33;;;7.50;99.90;;;8.32;83.39;101330.22;4948872;29;20074;-79
2020/12/18 00:50:41;;;;;;;6.68;2.40;;;7.60;99.90;;;8.21;83.79;101337.22;4964772;29;20023;-79
2020/12/18 00:53:08;;;;;;;7.75;2.58;;;7.50;99.90;;;8.21;83.88;101334.44;4965061;29;20054;-79
2020/12/18 00:55:34;;;;;;;8.15;2.58;;;7.60;99.90;;;8.19;83.93;101338.69;4979856;28;20027;-79
2020/12/18 00:58:00;;;;;;;7.75;2.80;;;7.50;99.90;;;8.21;84.03;101336.41;4968787;29;20244;-81
2020/12/18 01:00:26;;;;;;;9.45;2.40;;;7.50;99.90;;;8.21;84.21;101333.63;4970495;29;20039;-79
2020/12/18 01:02:52;;;;;;;7.45;2.60;;;7.60;99.90;;;8.33;83.46;101333.81;4970386;29;20039;-80
2020/12/18 01:05:17;;;;;;;8.60;2.50;;;7.60;99.90;;;8.33;83.37;101328.25;4972122;29;20070;-79
2020/12/18 01:07:43;;;;;;;4.40;2.08;;;7.70;99.90;;;8.39;83.26;101326.94;4973110;29;20035;-79
2020/12/18 01:10:09;;;;;;;7.55;2.47;;;7.70;99.90;;;8.42;83.27;101331.84;4973690;29;20034;-80
2020/12/18 01:12:35;;;;;;;5.25;2.88;;;7.70;99.90;;;8.38;83.22;101323.34;4968145;29;20042;-80
2020/12/18 01:15:01;;;;;;;8.35;2.72;;;7.70;99.90;;;8.45;83.01;101326.47;4968376;29;20035;-80
2020/12/18 01:17:26;;;;;;;5.65;2.75;;;7.70;99.90;;;8.33;83.50;101317.13;4967146;29;20031;-79
2020/12/18 01:19:53;;;;;;;6.88;3.00;;;7.60;99.90;;;8.26;83.53;101327.88;4982172;28;20035;-81
2020/12/18 01:22:18;;;;;;;8.73;3.17;;;7.70;99.90;;;8.25;83.57;101335.41;4965895;28;20035;-81
2020/12/18 01:24:44;;;;;;;10.50;2.85;;;7.60;99.90;;;8.21;83.64;101326.09;4954280;29;20035;-82
2020/12/18 01:27:10;;;;;;;5.75;2.47;;;7.60;99.90;;;8.22;83.69;101329.72;4988515;28;20035;-82
2020/12/18 01:29:36;;;;;;;8.60;3.05;;;7.60;99.90;;;8.12;84.13;101325.28;4976823;29;20043;-80
2020/12/18 01:32:02;;;;;;;8.63;2.50;;;7.40;99.90;;;8.17;83.70;101322.31;4979421;29;20095;-81
2020/12/18 01:34:28;;;;;;;7.18;2.65;;;7.40;99.90;;;8.09;83.94;101320.34;4979437;29;20096;-79
2020/12/18 01:36:53;;;;;;;7.63;2.17;;;7.40;99.90;;;8.09;83.89;101323.13;4978584;29;20047;-78
2020/12/18 01:39:19;;;;;;;8.65;2.40;;;7.40;99.90;;;7.97;84.24;101337.66;4978709;29;20039;-78
2020/12/18 01:41:45;;;;;;;8.77;2.90;;;7.20;99.90;;;7.99;84.39;101336.53;4994801;28;20383;-79
2020/12/18 01:44:11;;;;;;;8.95;3.08;;;7.20;99.90;;;7.94;84.44;101334.72;4974834;29;20027;-83
2020/12/18 01:46:39;;;;;;;5.88;2.65;;;7.20;99.90;;;7.86;84.75;101339.13;4969184;29;20024;-81
2020/12/18 01:49:05;;;;;;;6.63;2.50;;;7.10;99.90;;;7.79;84.78;101338.78;4967298;29;20114;-79
2020/12/18 01:51:31;;;;;;;5.70;2.83;;;7.00;99.90;;;7.77;85.28;101341.03;4966631;29;20039;-80
2020/12/18 01:53:58;;;;;;;7.55;3.25;;;7.00;99.90;;;7.74;85.20;101332.53;4966691;29;20432;-80
2020/12/18 01:56:24;;;;;;;5.70;2.92;;;7.00;99.90;;;7.68;85.47;101339.38;4964467;29;20031;-81
2020/12/18 01:58:53;;;;;;;11.57;4.10;;;6.90;99.90;;;7.65;85.48;101342.81;4962821;29;20102;-79
2020/12/18 02:01:19;;;;;;;7.68;2.67;;;6.90;99.90;;;7.59;86.00;101335.75;4948298;29;20118;-81
2020/12/18 02:03:45;;;;;;;9.23;3.35;;;6.90;99.90;;;7.60;85.40;101329.88;4962380;29;20031;-80
2020/12/18 02:06:17;;;;;;;6.97;2.90;;;6.80;99.90;;;7.53;85.89;101332.31;4962822;29;20042;-78
2020/12/18 02:08:48;;;;;;;8.25;2.75;;;6.80;99.90;;;7.52;86.12;101327.06;4962596;29;20031;-82
2020/12/18 02:11:21;;;;;;;9.77;3.17;;;6.80;99.90;;;7.52;86.28;101327.88;4978267;28;20055;-81
2020/12/18 02:13:53;;;;;;;8.10;2.47;;;6.80;99.90;;;7.61;85.66;101327.94;4962109;29;20024;-80
2020/12/18 02:16:21;;;;;;;7.97;2.85;;;6.80;99.90;;;7.57;85.92;101326.94;4961992;29;20032;-81
2020/12/18 02:18:48;;;;;;;6.43;3.22;;;6.70;99.90;;;7.56;85.90;101322.50;4961624;29;20038;-80
2020/12/18 02:21:15;;;;;;;10.60;2.20;;;6.80;99.90;;;7.55;86.16;101318.06;4961475;29;20031;-79
2020/12/18 02:23:48;;;;;;;8.95;3.13;;;6.80;99.90;;;7.54;85.99;101317.28;4961249;29;20456;-80
2020/12/18 02:26:18;;;;;;;7.00;2.40;;;6.80;99.90;;;7.58;85.46;101312.69;4977461;28;20037;-79
2020/12/18 02:28:46;;;;;;;6.72;3.38;;;6.80;99.90;;;7.58;85.56;101307.13;4962043;29;20037;-80
2020/12/18 02:31:13;;;;;;;8.88;4.18;;;6.80;99.90;;;7.53;85.77;101306.47;4962437;29;20031;-80
2020/12/18 02:33:43;;;;;;;8.02;3.28;;;6.80;99.90;;;7.48;86.27;101312.97;4959866;28;20058;-78
2020/12/18 02:36:10;;;;;;;10.23;3.22;;;6.70;99.90;;;7.45;86.34;101312.81;4945258;29;20126;-80
2020/12/18 02:38:36;;;;;;;10.20;3.13;;;6.70;99.90;;;7.48;85.90;101314.97;4945295;29;20034;-79
2020/12/18 02:41:03;;;;;;;7.05;3.03;;;6.80;99.90;;;7.50;85.63;101315.44;4945641;29;20051;-80
2020/12/18 02:43:29;;;;;;;6.60;2.55;;;6.70;99.90;;;7.49;85.60;101320.19;4960603;29;20023;-79
2020/12/18 02:45:55;;;;;;;7.05;2.35;;;6.70;99.90;;;7.45;86.22;101308.06;4960855;29;20030;-79
2020/12/18 02:48:23;;;;;;;4.25;2.88;;;6.70;99.90;;;7.46;85.78;101306.09;4960274;29;20031;-79
2020/12/18 02:50:50;;;;;;;10.07;3.05;;;6.70;99.90;;;7.43;86.21;101304.78;4960628;29;20387;-80
2020/12/18 02:53:23;;;;;;;15.07;3.08;;;6.60;99.90;;;7.41;86.13;101313.47;4977104;28;20094;-78
2020/12/18 02:55:49;;;;;;;10.80;3.13;;;6.60;99.90;;;7.40;86.05;101317.38;4959830;29;20088;-80
2020/12/18 02:58:15;;;;;;;5.97;2.63;;;6.60;99.90;;;7.37;85.80;101311.66;4960557;29;20031;-80
2020/12/18 03:00:42;;;;;;;10.43;3.10;;;6.60;99.90;;;7.28;86.33;101310.78;4962196;29;20035;-81
2020/12/18 03:03:09;;;;;;;12.32;3.05;;;6.50;99.90;;;7.27;86.27;101309.16;4962420;29;20050;-80
2020/12/18 03:05:36;;;;;;;10.40;2.80;;;6.50;99.90;;;7.32;85.85;101303.47;4944360;29;20086;-82
2020/12/18 03:08:03;;;;;;;15.50;2.92;;;6.50;99.90;;;7.23;86.51;101313.69;4960335;29;20031;-80
2020/12/18 03:10:29;;;;;;;7.20;2.72;;;6.50;99.90;;;7.17;86.23;101313.03;4958929;29;20090;-79
2020/12/18 03:12:55;;;;;;;9.30;2.30;;;6.40;99.90;;;7.09;86.57;101316.59;4957837;29;20487;-80
2020/12/18 03:15:21;;;;;;;10.23;2.65;;;6.30;99.90;;;7.02;86.73;101307.06;4958324;29;20038;-81
2020/12/18 03:17:48;;;;;;;8.43;2.75;;;6.30;99.90;;;6.97;87.48;101308.00;4958248;29;20027;-80
2020/12/18 03:20:15;;;;;;;6.55;2.78;;;6.20;99.90;;;7.00;87.41;101315.69;4957918;29;20090;-79
2020/12/18 03:22:41;;;;;;;7.05;2.33;;;6.20;99.90;;;6.91;87.51;101309.28;4958623;29;20031;-80
2020/12/18 03:25:07;;;;;;;8.75;2.50;;;6.10;99.90;;;6.93;87.84;101314.53;4958019;29;20023;-81
2020/12/18 03:27:33;;;;;;;8.63;2.65;;;6.20;99.90;;;6.96;87.10;101311.09;4957901;29;20023;-80
2020/12/18 03:29:59;;;;;;;4.85;2.22;;;6.20;99.90;;;6.88;87.53;101310.72;4957450;29;20122;-81
2020/12/18 03:32:25;;;;;;;5.85;2.40;;;6.10;99.90;;;6.90;87.96;101311.22;4942372;29;20397;-80
2020/12/18 03:34:51;;;;;;;4.82;2.15;;;6.20;99.90;;;7.00;87.70;101320.47;4957135;29;20027;-81
2020/12/18 03:37:18;;;;;;;6.55;1.88;;;6.20;99.90;;;7.07;87.40;101312.47;4957462;29;20023;-78
2020/12/18 03:39:46;;;;;;;7.53;2.72;;;6.30;99.90;;;7.12;87.17;101313.16;4957097;29;20035;-81
2020/12/18 03:42:11;;;;;;;8.10;2.30;;;6.40;99.90;;;7.14;87.16;101316.44;4958077;29;20400;-80
2020/12/18 03:44:37;;;;;;;6.13;1.90;;;6.50;99.90;;;7.28;86.22;101311.63;4957122;28;20023;-80
2020/12/18 03:47:04;;;;;;;5.32;2.20;;;6.50;99.90;;;7.31;85.93;101313.75;4957140;29;20090;-81
2020/12/18 03:49:30;;;;;;;4.60;2.85;;;6.60;99.90;;;7.35;85.79;101311.16;4973114;28;20041;-82
2020/12/18 03:51:56;;;;;;;5.03;1.95;;;6.70;99.90;;;7.36;86.00;101310.81;4956750;29;20397;-80
2020/12/18 03:54:23;;;;;;;6.20;1.90;;;6.70;99.90;;;7.45;85.28;101321.97;4957372;29;20053;-82
2020/12/18 03:56:48;;;;;;;7.47;2.13;;;6.70;99.90;;;7.37;85.80;101306.91;4956834;29;20027;-80
2020/12/18 03:59:14;;;;;;;8.90;1.95;;;6.70;99.90;;;7.38;85.67;101313.28;4941292;29;20038;-80
2020/12/18 04:01:40;;;;;;;7.00;1.80;;;6.70;99.90;;;7.46;85.28;101311.66;4940359;29;20032;-82
2020/12/18 04:04:06;;;;;;;6.43;1.48;;;6.70;99.90;;;7.32;86.17;101311.78;4955985;29;20458;-81
2020/12/18 04:06:32;;;;;;;10.23;2.22;;;6.70;99.90;;;7.35;85.99;101308.38;4956440;29;20026;-80
2020/12/18 04:08:57;;;;;;;6.43;2.20;;;6.60;99.90;;;7.37;86.25;101308.88;4956035;29;20027;-79
2020/12/18 04:11:23;;;;;;;8.27;2.45;;;6.70;99.90;;;7.39;85.63;101301.84;4955752;29;20126;-80
2020/12/18 04:13:49;;;;;;;7.60;2.05;;;6.70;99.90;;;7.42;85.97;101292.84;4955667;29;20035;-80
2020/12/18 04:16:18;;;;;;;7.85;2.45;;;6.70;99.90;;;7.34;86.07;101315.06;4956694;29;20062;-80
2020/12/18 04:18:44;;;;;;;9.75;2.25;;;6.70;99.90;;;7.32;86.39;101309.03;4961187;29;20039;-80
2020/12/18 04:21:10;;;;;;;4.28;2.17;;;6.70;99.90;;;7.41;85.44;101312.66;4954638;29;20506;-80
2020/12/18 04:23:37;;;;;;;5.80;2.70;;;6.70;99.90;;;7.36;85.98;101315.56;4971348;28;20098;-80
2020/12/18 04:26:03;;;;;;;2.88;2.13;;;6.60;99.90;;;7.41;86.12;101307.09;4971111;28;20027;-80
2020/12/18 04:28:28;;;;;;;9.20;2.92;;;6.60;99.90;;;7.35;86.10;101313.94;4955157;29;20031;-80
2020/12/18 04:30:55;;;;;;;12.55;2.60;;;6.60;99.90;;;7.28;86.54;101310.78;4956679;29;20039;-79
2020/12/18 04:33:21;;;;;;;8.95;2.30;;;6.60;99.90;;;7.24;86.24;101312.56;4956780;29;20063;-80
2020/12/18 04:35:47;;;;;;;7.47;2.10;;;6.60;99.90;;;7.25;87.03;101306.69;4954927;29;20059;-78
2020/12/18 04:38:13;;;;;;;7.20;2.45;;;6.50;99.90;;;7.35;85.98;101300.84;4954974;29;20038;-78
2020/12/18 04:40:41;;;;;;;6.63;2.92;;;6.60;99.90;;;7.32;86.56;101309.03;4938723;29;20407;-79
2020/12/18 04:43:08;;;;;;;7.78;2.15;;;6.60;99.90;;;7.38;85.97;101305.75;4955151;29;20035;-80
2020/12/18 04:45:34;;;;;;;9.75;2.40;;;6.60;99.90;;;7.37;86.20;101300.53;4955018;29;20023;-79
2020/12/18 04:48:05;;;;;;;9.07;2.70;;;6.70;99.90;;;7.35;86.32;101298.06;4939066;29;20074;-80
2020/12/18 04:50:31;;;;;;;5.72;2.15;;;6.70;99.90;;;7.41;85.96;101296.78;4954897;29;20031;-77
2020/12/18 04:52:57;;;;;;;5.53;2.50;;;6.60;99.90;;;7.40;86.19;101295.16;4956026;29;20042;-80
2020/12/18 04:55:28;;;;;;;6.60;2.28;;;6.70;99.90;;;7.45;85.78;101293.38;4955301;29;20054;-81
2020/12/18 04:58:01;;;;;;;6.28;2.15;;;6.70;99.90;;;7.42;85.95;101292.03;4955171;28;20035;-81
2020/12/18 05:00:28;;;;;;;12.43;2.90;;;6.70;99.90;;;7.39;86.12;101295.44;4961216;29;20106;-80
2020/12/18 05:02:56;;;;;;;7.68;2.75;;;6.70;99.90;;;7.32;85.86;101300.69;4961058;29;20070;-82
2020/12/18 05:05:22;;;;;;;8.00;2.47;;;6.60;99.90;;;7.37;86.07;101297.75;4963876;29;20123;-83
2020/12/18 05:07:48;;;;;;;8.88;2.55;;;6.60;99.90;;;7.31;86.38;101299.84;4959803;29;20055;-83
2020/12/18 05:10:14;;;;;;;9.10;2.20;;;6.60;99.90;;;7.34;86.31;101296.44;4974355;28;20040;-83
2020/12/18 05:12:40;;;;;;;5.03;2.00;;;6.60;99.90;;;7.30;86.33;101292.66;4961205;29;20031;-85
2020/12/18 05:15:06;;;;;;;6.45;2.20;;;6.60;99.90;;;7.35;86.07;101289.72;4969719;28;20039;-80
2020/12/18 05:17:33;;;;;;;6.85;2.25;;;6.60;99.90;;;7.38;85.84;101286.28;4957159;29;20495;-82
2020/12/18 05:20:00;;;;;;;7.75;2.50;;;6.60;99.90;;;7.39;86.20;101295.44;4958302;29;20038;-80
2020/12/18 05:22:26;;;;;;;8.95;3.53;;;6.60;99.90;;;7.42;85.92;101283.69;4955205;29;20118;-82
2020/12/18 05:24:56;;;;;;;6.07;2.13;;;6.70;99.90;;;7.35;86.43;101292.50;4957150;29;20028;-83
2020/12/18 05:27:23;;;;;;;8.32;2.22;;;6.70;99.90;;;7.48;85.82;101287.16;4960764;29;20032;-80
2020/12/18 05:29:51;;;;;;;8.75;2.40;;;6.80;99.90;;;7.46;85.78;101281.91;4959989;29;20082;-83
2020/12/18 05:32:17;;;;;;;9.90;2.47;;;6.70;99.90;;;7.44;85.66;101289.78;4957233;29;20034;-80
2020/12/18 05:34:44;;;;;;;9.15;2.40;;;6.80;99.90;;;7.43;85.76;101282.56;4972480;28;20031;-82
2020/12/18 05:37:14;;;;;;;6.45;2.42;;;6.80;99.90;;;7.40;85.45;101284.03;4955023;29;20038;-80
2020/12/18 05:39:43;;;;;;;5.93;2.10;;;6.70;99.90;;;7.39;86.03;101287.94;4954957;29;20058;-81
2020/12/18 05:42:10;;;;;;;6.85;1.90;;;6.70;99.90;;;7.37;85.93;101279.13;4955279;29;20039;-82
2020/12/18 05:44:36;;;;;;;6.63;2.42;;;6.70;99.90;;;7.35;86.16;101278.59;4955202;29;20028;-84
2020/12/18 05:47:10;;;;;;;11.00;2.83;;;6.70;99.90;;;7.34;86.07;101284.50;4954969;29;20038;-81
2020/12/18 05:49:40;;;;;;;4.93;2.20;;;6.70;99.90;;;7.45;85.70;101279.47;4955067;29;20027;-82
2020/12/18 05:52:18;;;;;;;6.40;2.15;;;6.80;99.90;;;7.46;85.49;101269.97;4954587;29;20440;-82
2020/12/18 05:54:46;;;;;;;5.35;2.40;;;6.70;99.90;;;7.35;85.73;101273.03;4957566;29;20046;-80
2020/12/18 05:57:15;;;;;;;10.63;2.92;;;6.70;99.90;;;7.41;85.84;101276.50;4956324;29;20043;-83
2020/12/18 05:59:45;;;;;;;11.02;2.35;;;6.80;99.90;;;7.39;85.57;101282.38;4957287;29;20386;-80
2020/12/18 06:02:15;;;;;;;6.93;1.80;;;6.80;99.90;;;7.40;85.35;101283.22;4941838;29;20035;-80
2020/12/18 06:04:45;;;;;;;6.25;2.30;;;6.70;99.90;;;7.34;85.68;101290.06;4940854;29;20082;-82
2020/12/18 06:07:11;;;;;;;8.30;1.92;;;6.60;99.90;;;7.37;85.92;101284.69;4961087;29;20483;-80
2020/12/18 06:09:38;;;;;;;6.05;2.50;;;6.70;99.90;;;7.29;85.96;101290.19;4967022;28;20454;-81
2020/12/18 06:12:12;;;;;;;6.90;1.98;;;6.60;99.90;;;7.28;85.49;101291.34;4949148;29;20035;-82
2020/12/18 06:14:41;;;;;;;6.25;2.38;;;6.60;99.90;;;7.29;85.74;101287.41;4964905;29;20030;-81
2020/12/18 06:17:15;;;;;;;12.02;2.75;;;6.60;99.90;;;7.26;86.02;101291.66;4963594;29;20079;-79
2020/12/18 06:19:43;;;;;;;6.63;2.05;;;6.60;99.90;;;7.25;85.92;101286.44;4963306;29;20045;-79
2020/12/18 06:22:13;;;;;;;7.30;2.17;;;6.50;99.90;;;7.28;86.02;101280.22;4960457;29;20058;-79
2020/12/18 06:24:47;;;;;;;7.30;2.20;;;6.60;99.90;;;7.29;85.64;101279.06;4956815;29;20031;-80
2020/12/18 06:27:18;;;;;;;9.60;2.38;;;6.60;99.90;;;7.29;85.99;101290.19;4957849;29;20031;-82
2020/12/18 06:29:47;;;;;;;8.32;2.00;;;6.60;99.90;;;7.27;85.84;101279.41;4957949;29;20085;-79
2020/12/18 06:32:31;;;;;;;5.53;2.50;;;6.50;99.90;;;7.16;86.43;101274.47;4957261;29;20042;-79
2020/12/18 06:35:36;;;;;;;9.30;2.58;;;6.50;99.90;;;7.13;86.21;101280.63;4957127;29;20446;-79
2020/12/18 06:38:14;;;;;;;4.20;2.00;;;6.40;99.90;;;7.09;86.60;101279.66;4940697;29;20047;-79
2020/12/18 06:40:42;;;;;;;5.97;1.52;;;6.40;99.90;;;7.08;86.50;101278.00;4957906;29;20495;-81
2020/12/18 06:43:11;;;;;;;5.13;2.10;;;6.40;99.90;;;7.08;86.99;101276.06;4956506;29;20035;-81
2020/12/18 06:45:37;;;;;;;5.13;1.92;;;6.40;99.90;;;7.09;86.68;101274.91;4957910;29;20039;-78
2020/12/18 06:48:28;;;;;;;8.25;2.22;;;6.40;99.90;;;7.07;86.67;101277.19;4957323;29;20044;-79
2020/12/18 06:50:54;;;;;;;8.40;2.22;;;6.50;99.90;;;7.13;86.52;101269.50;4956928;29;20098;-80
2020/12/18 06:53:20;;;;;;;7.00;2.38;;;6.50;99.90;;;7.07;86.52;101271.63;4956043;29;20039;-81
2020/12/18 06:55:46;;;;;;;8.23;2.20;;;6.40;99.90;;;7.10;86.81;101261.81;4955937;29;20394;-80
2020/12/18 06:58:17;;;;;;;5.45;2.08;;;6.50;99.90;;;7.14;86.42;101266.44;4939498;29;20130;-80
2020/12/18 07:00:58;;;;;;;6.93;2.05;;;6.50;99.90;;;7.12;86.35;101263.16;4956037;29;20058;-79
2020/12/18 07:03:45;;;;;;;10.20;2.30;;;6.50;99.90;;;7.14;86.58;101258.09;4955865;29;20447;-81
2020/12/18 07:06:31;;;;;;;5.57;1.90;;;6.50;99.90;;;7.14;86.40;101268.38;4956005;29;20047;-79
2020/12/18 07:08:57;;;;;;;7.63;2.45;;;6.50;99.90;;;7.15;86.39;101267.25;4956036;29;20040;-81
2020/12/18 07:11:24;;;;;;;8.55;2.63;;;6.50;99.90;;;7.15;86.37;101264.47;4955904;29;20031;-80
2020/12/18 07:13:53;;;;;;;5.30;2.63;;;6.50;99.90;;;7.10;86.51;101262.66;4957249;29;20369;-80
2020/12/18 07:16:26;;;;;;;10.13;2.38;;;6.50;99.90;;;7.17;86.63;101251.06;4939767;29;20105;-80
2020/12/18 07:19:03;;;;;;;6.13;2.70;;;6.50;99.90;;;7.12;86.43;101260.38;4955896;29;20031;-80
2020/12/18 07:21:29;;;;;;;5.35;2.28;;;6.50;99.90;;;7.14;86.37;101263.66;4956791;29;20024;-81
2020/12/18 07:23:55;;;;;;;3.95;2.45;;;6.50;99.90;;;7.08;86.39;101258.56;4955802;29;20078;-81
2020/12/18 07:26:21;;;;;;;12.02;3.67;;;6.50;99.90;;;7.11;86.63;101253.19;4956689;29;20106;-79
2020/12/18 07:28:49;;;;;;;9.60;2.40;;;6.50;99.90;;;7.11;86.59;101257.91;4955556;29;20027;-78
2020/12/18 07:31:23;;;;;;;7.10;2.20;;;6.50;99.90;;;7.07;86.77;101254.13;4956551;29;20029;-79
2020/12/18 07:33:57;;;;;;;6.80;2.60;;;6.50;99.90;;;7.12;86.40;101254.00;4956337;29;20102;-79
2020/12/18 07:36:28;;;;;;;8.20;2.33;;;6.50;99.90;;;7.12;86.46;101251.22;4956397;29;20028;-79
2020/12/18 07:38:59;;;;;;;10.30;2.42;;;6.50;99.90;;;7.14;86.46;101257.28;4956532;29;20066;-80
2020/12/18 07:41:32;;;;;;;5.93;2.75;;;6.60;99.90;;;7.21;85.98;101243.75;4956250;29;20114;-81
2020/12/18 07:44:09;;;;;;;6.55;2.58;;;6.50;99.90;;;7.21;85.97;101252.06;4940116;29;20024;-80
2020/12/18 07:46:36;;;;;;;10.10;2.63;;;6.60;99.90;;;7.34;85.38;101242.81;4955378;29;20354;-79
2020/12/18 07:49:09;;;;;;;6.78;2.90;;;6.60;99.90;;;7.23;86.22;101244.22;4955448;29;20038;-80
2020/12/18 07:51:39;;;;;;;16.75;2.67;;;6.60;99.90;;;7.32;85.54;101243.13;4956000;29;20110;-83
2020/12/18 07:54:06;;;;;;;7.55;2.22;;;6.70;99.90;;;7.39;85.52;101237.91;4954993;29;20035;-79
2020/12/18 07:56:32;;;;;;;7.18;2.13;;;6.80;99.90;;;7.42;85.60;101239.22;4955135;29;20031;-79
2020/12/18 07:59:08;;;;;;;10.40;3.53;;;6.80;99.90;;;7.46;84.90;101245.78;4955946;29;20506;-81
2020/12/18 08:01:37;;;;;;;5.20;2.40;;;6.80;99.90;;;7.48;84.85;101245.47;4956410;29;20197;-79
2020/12/18 08:04:11;;;;;;;7.57;1.98;;;6.90;99.90;;;7.60;84.56;101235.38;4956437;29;20027;-80
2020/12/18 08:06:40;;;;;;;5.97;2.42;;;7.00;99.90;;;7.72;84.17;101241.09;4954827;29;20031;-79
2020/12/18 08:09:11;;;;;;;6.60;2.00;;;7.00;99.90;;;7.85;83.70;101242.91;4939018;29;20037;-79
2020/12/18 08:11:45;;;;;;;5.70;2.25;;;7.10;99.90;;;7.85;83.25;101247.66;4956804;29;20031;-80
2020/12/18 08:14:13;;;;;;;8.25;2.33;;;7.20;99.90;;;7.93;82.92;101242.09;4939256;29;20122;-81
2020/12/18 08:16:39;;;;;;;4.85;1.83;;;7.30;99.90;;;8.03;82.61;101237.38;4956548;29;20035;-79
2020/12/18 08:19:12;;;;;;;7.78;2.05;;;7.30;99.90;;;7.94;83.25;101235.41;4954908;29;20086;-80
2020/12/18 08:21:42;;;;;;;6.70;2.30;;;7.30;99.90;;;8.10;82.57;101234.91;4955235;29;20031;-79
2020/12/18 08:24:36;;;;;;;7.53;2.40;;;7.40;99.90;;;8.16;82.16;101236.38;4954157;29;20024;-83
2020/12/18 08:27:20;;;;;;;5.80;2.30;;;7.50;99.90;;;8.32;81.89;101243.09;4954382;29;20260;-82
2020/12/18 08:29:46;;;;;;;6.72;2.40;;;7.60;99.90;;;8.30;81.87;101239.84;4954321;29;20034;-82
2020/12/18 08:32:27;;;;;;;5.63;1.88;;;7.60;99.90;;;8.34;81.76;101244.44;4937933;29;20023;-81
2020/12/18 08:35:07;;;;;;;5.78;1.90;;;7.60;99.90;;;8.44;81.55;101244.06;4956115;29;20468;-82
2020/12/18 08:37:34;;;;;;;6.30;2.33;;;7.80;99.90;;;8.50;80.90;101241.97;4954232;29;20038;-81
2020/12/18 08:40:00;;;;;;;8.25;3.03;;;7.80;99.90;;;8.58;81.26;101241.13;4953963;29;20031;-82
2020/12/18 08:42:29;;;;;;;5.35;1.80;;;7.90;99.90;;;8.63;80.72;101249.31;4953582;29;20043;-83
2020/12/18 08:44:59;;;;;;;9.07;3.20;;;8.00;99.90;;;8.83;79.76;101239.44;4955223;29;20494;-82
2020/12/18 08:47:30;;;;;;;7.15;2.15;;;8.10;99.90;;;8.89;79.70;101246.47;4953889;29;20042;-82
2020/12/18 08:49:58;;;;;;;8.25;2.28;;;8.20;99.90;;;9.07;79.09;101238.84;4954293;29;20550;-83
2020/12/18 08:52:29;;;;;;;5.88;1.98;;;8.30;99.90;;;9.06;78.82;101238.03;4953701;29;20590;-83
2020/12/18 08:55:08;;;;;;;12.02;2.22;;;8.40;99.90;;;9.34;77.65;101238.41;4955551;29;20102;-83
2020/12/18 08:57:37;;;;;;;6.38;2.22;;;8.60;99.90;;;9.34;77.60;101242.00;4955434;29;20043;-83
2020/12/18 09:00:15;;;;;;;7.82;2.67;;;8.80;99.90;;;9.48;76.91;101247.34;4956940;29;20093;-79
2020/12/18 09:02:53;;;;;;;6.20;1.77;;;8.80;99.90;;;9.52;77.23;101251.09;4938335;29;20031;-81
2020/12/18 09:05:36;;;;;;;9.10;2.40;;;8.90;99.90;;;9.57;76.89;101259.25;4953935;29;20032;-80
2020/12/18 09:08:05;;;;;;;11.27;2.10;;;8.90;99.90;;;9.67;76.21;101258.06;4954687;29;20059;-80
2020/12/18 09:10:40;;;;;;;7.25;2.55;;;9.10;99.90;;;9.82;76.05;101257.50;4954564;29;20027;-80
2020/12/18 09:13:30;;;;;;;6.82;1.90;;;9.20;99.90;;;9.80;76.16;101257.81;4953262;29;20038;-80
2020/12/18 09:16:02;;;;;;;8.43;1.90;;;9.10;99.90;;;9.83;76.01;101248.75;4955145;29;20094;-79
2020/12/18 09:18:38;;;;;;;6.20;1.70;;;9.20;99.90;;;9.88;75.80;101261.72;4954583;29;20046;-80
2020/12/18 09:21:19;;;;;;;6.45;1.65;;;9.20;99.90;;;9.85;75.70;101268.78;4938206;29;20233;-79
2020/12/18 09:23:47;;;;;;;5.97;1.85;;;9.40;99.90;;;9.99;74.76;101271.31;4954995;29;20086;-79
2020/12/18 09:26:28;;;;;;;6.60;2.10;;;9.40;99.90;;;9.90;75.42;101276.94;4953616;29;20157;-80
2020/12/18 09:28:56;;;;;;;11.32;1.77;;;9.30;99.90;;;9.90;75.46;101264.97;4953608;29;20054;-81
2020/12/18 09:31:25;;;;;;;7.05;1.67;;;9.40;99.90;;;9.73;75.24;101265.09;4953893;29;20034;-81
2020/12/18 09:33:51;;;;;;;6.00;1.70;;;9.30;99.90;;;10.04;75.39;101265.53;4954719;29;20034;-81
2020/12/18 09:36:19;;;;;;;5.85;1.73;;;9.40;99.90;;;10.37;74.14;101266.44;4953669;29;20547;-80
2020/12/18 09:38:54;;;;;;;8.23;1.73;;;9.60;99.90;;;10.39;73.13;101264.13;4937506;29;20031;-79
2020/12/18 09:41:23;;;;;;;6.13;2.10;;;9.70;99.90;;;10.44;73.66;101271.47;4954683;29;20094;-81
2020/12/18 09:43:50;;;;;;;4.30;1.98;;;9.80;99.90;;;10.74;71.75;101273.00;4957139;28;20094;-81
2020/12/18 09:46:22;;;;;;;6.35;1.75;;;10.00;99.90;;;10.85;71.33;101270.59;4957285;29;20427;-80
2020/12/18 09:48:48;;;;;;;4.45;1.75;;;10.20;99.90;;;10.98;71.04;101267.47;4957809;29;20027;-81
2020/12/18 09:51:17;;;;;;;10.77;2.17;;;10.30;99.90;;;11.41;69.75;101269.75;4959324;29;20450;-82
2020/12/18 09:53:44;;;;;;;4.38;1.90;;;10.50;99.90;;;11.36;69.36;101264.41;4958094;29;20035;-80
2020/12/18 09:56:13;;;;;;;5.65;2.10;;;10.60;99.90;;;11.51;68.42;101279.66;4957466;29;20078;-81
2020/12/18 09:58:39;;;;;;;7.35;2.75;;;10.70;99.90;;;11.69;68.37;101280.25;4958699;29;20109;-77
2020/12/18 10:01:06;;;;;;;8.18;2.08;;;10.80;99.90;;;12.00;66.90;101286.91;4958943;29;20039;-81
2020/12/18 10:03:32;;;;;;;4.05;1.63;;;11.00;99.90;;;11.86;67.75;101283.63;4957654;29;20038;-79
2020/12/18 10:05:59;;;;;;;7.97;1.95;;;11.10;99.90;;;11.90;66.99;101286.56;4974213;28;20503;-81
2020/12/18 10:08:25;;;;;;;4.63;1.90;;;11.10;99.90;;;12.11;67.22;101292.81;4973791;28;20495;-81
2020/12/18 10:10:51;;;;;;;7.03;1.95;;;11.20;99.90;;;12.34;65.95;101288.31;4974094;28;20159;-77
2020/12/18 10:13:17;;;;;;;7.28;1.70;;;11.40;99.90;;;12.13;65.98;101279.28;4958735;29;20146;-80
2020/12/18 10:15:43;;;;;;;8.18;1.50;;;11.30;99.90;;;11.75;67.86;101290.06;4959136;29;20078;-81
2020/12/18 10:18:09;;;;;;;4.22;1.30;;;11.10;99.90;;;11.64;67.54;101276.50;4958260;29;20035;-77
2020/12/18 10:20:35;;;;;;;2.38;1.27;;;11.00;99.90;;;11.68;67.15;101285.03;4973395;28;20435;-79
2020/12/18 10:23:02;;;;;;;3.10;1.40;;;10.90;99.90;;;11.64;67.61;101282.13;4974814;28;20035;-82
2020/12/18 10:25:28;;;;;;;8.88;1.90;;;10.90;99.90;;;11.65;66.97;101289.31;4958030;29;20027;-82
2020/12/18 10:27:53;;;;;;;5.60;1.42;;;10.90;99.90;;;11.78;68.21;101289.38;4959830;29;20494;-79
2020/12/18 10:30:20;;;;;;;3.42;1.20;;;11.00;99.90;;;12.01;66.71;101285.72;4959451;29;20023;-81